Menalon — SXCH — position and weather

sailwx.info

Track history (hours):
 
Tides and Currents Weather Stations Pressure Air Temp Water Temp Dewpoint Dewpoint Depression Visibility Wind Speed Wind Dir Waves Ship Positions

Menalon

Last reported at 2016-Aug-23 20:33 UTC. Time now 2016-Aug-23 21:07 UTC.
Position N 37°56' E 023°34'.

Length 83 m; draft 3.5 m.

Type: Ship (hazmat cat C). MMSI: 239741000.

Date/timePositionNaut miles runAvg speedWind from/ knotsBaromVisibWave heightAir tempDewpointWater temp
2016-Aug-23 20:33N 37°56' E 023°34'0 0.0
2016-Aug-23 19:33N 37°56' E 023°34'0 0.0
2016-Aug-23 18:33N 37°56' E 023°34'8 8.0
2016-Aug-23 17:33N 37°49' E 023°40'1110.7
2016-Aug-23 16:33N 37°40' E 023°46'1111.0
2016-Aug-23 15:33N 37°29' E 023°45'13 0.3
2016-Aug-21 13:07N 37°16' E 023°41'5 9.6
2016-Aug-21 12:33N 37°21' E 023°42'1010.1
2016-Aug-21 11:33N 37°31' E 023°42'1010.3
2016-Aug-21 10:33N 37°41' E 023°41'10 9.9
2016-Aug-21 09:33N 37°50' E 023°34'1010.5
2016-Aug-21 08:33N 37°51' E 023°21'1010.4
2016-Aug-21 07:33N 37°54' E 023°08'2 2.3
2016-Aug-21 06:32N 37°55' E 023°05'0 0.0
2016-Aug-21 05:32N 37°55' E 023°05'0 0.0
2016-Aug-21 04:32N 37°55' E 023°05'0 0.0
2016-Aug-21 03:33N 37°55' E 023°05'0 0.0
2016-Aug-21 02:33N 37°55' E 023°05'0 0.0
2016-Aug-21 01:33N 37°55' E 023°05'0 0.0
2016-Aug-21 00:33N 37°55' E 023°05'0 0.0
2016-Aug-20 23:33N 37°55' E 023°05'0 0.0
2016-Aug-20 22:33N 37°55' E 023°05'5 5.1
2016-Aug-20 21:33N 37°54' E 023°12'1010.5
2016-Aug-20 20:33N 37°52' E 023°24'9 8.5
2016-Aug-20 19:33N 37°56' E 023°34'0 0.0
2016-Aug-20 18:33N 37°56' E 023°34'0 0.0
2016-Aug-20 17:33N 37°56' E 023°34'0 0.0
2016-Aug-20 16:33N 37°56' E 023°34'0 0.0
2016-Aug-20 15:33N 37°56' E 023°34'0 0.0
2016-Aug-20 14:33N 37°56' E 023°34'0 0.0
2016-Aug-20 13:33N 37°56' E 023°34'0 0.0
2016-Aug-20 12:33N 37°56' E 023°34'0 0.0
2016-Aug-20 11:33N 37°56' E 023°34'0 0.0
2016-Aug-20 10:33N 37°56' E 023°34'0 0.0
2016-Aug-20 09:33N 37°56' E 023°34'0 0.0
2016-Aug-20 08:33N 37°56' E 023°34'0 0.0
2016-Aug-20 07:33N 37°56' E 023°34'0 0.0
2016-Aug-20 06:33N 37°56' E 023°34'0 0.0
2016-Aug-20 05:33N 37°56' E 023°34'0 0.0
2016-Aug-20 04:33N 37°56' E 023°34'0 0.0
2016-Aug-20 03:33N 37°56' E 023°34'0 0.0
2016-Aug-20 02:33N 37°56' E 023°34'0 0.0
2016-Aug-20 01:33N 37°56' E 023°34'0 0.0
2016-Aug-20 00:33N 37°56' E 023°34'0 0.0
2016-Aug-19 23:33N 37°56' E 023°34'0 0.0
2016-Aug-19 22:33N 37°56' E 023°34'0 0.1
2016-Aug-19 21:33N 37°56' E 023°34'0 0.1
2016-Aug-19 20:33N 37°56' E 023°34'0 0.0
2016-Aug-19 19:33N 37°56' E 023°34'0 0.0
2016-Aug-19 18:33N 37°56' E 023°34'0 0.0
2016-Aug-19 17:33N 37°56' E 023°34'0 0.0
2016-Aug-19 16:33N 37°56' E 023°34'0 0.0
2016-Aug-19 15:33N 37°56' E 023°34'0 0.0
2016-Aug-19 14:33N 37°56' E 023°34'0 0.0
2016-Aug-19 13:33N 37°56' E 023°34'0 0.0
2016-Aug-19 12:33N 37°56' E 023°34'0 0.0
2016-Aug-19 11:33N 37°56' E 023°34'0 0.0
2016-Aug-19 10:33N 37°56' E 023°34'0 0.1
2016-Aug-19 09:33N 37°56' E 023°34'0 0.0
2016-Aug-19 08:33N 37°56' E 023°34'0 0.0
2016-Aug-19 07:33N 37°56' E 023°34'0 0.0
2016-Aug-19 06:33N 37°56' E 023°34'0 0.0
2016-Aug-19 05:33N 37°56' E 023°34'0 0.0
2016-Aug-19 04:33N 37°56' E 023°34'0 0.0
2016-Aug-19 03:33N 37°56' E 023°34'0 0.0
2016-Aug-19 02:33N 37°56' E 023°34'0 0.0
2016-Aug-19 01:33N 37°56' E 023°34'1 0.7
2016-Aug-19 00:33N 37°55' E 023°34'1 1.1
2016-Aug-18 23:33N 37°54' E 023°34'0 0.0
2016-Aug-18 22:33N 37°54' E 023°34'2 1.7
2016-Aug-18 21:33N 37°56' E 023°34'0 0.0
2016-Aug-18 20:33N 37°56' E 023°34'0 0.0
2016-Aug-18 19:33N 37°56' E 023°34'0 0.0
2016-Aug-18 18:33N 37°56' E 023°34'0 0.0
2016-Aug-18 17:33N 37°56' E 023°34'0 0.0
2016-Aug-18 16:33N 37°56' E 023°34'0 0.0
2016-Aug-18 15:33N 37°56' E 023°34'0 0.0
2016-Aug-18 14:33N 37°56' E 023°34'0 0.0
2016-Aug-18 13:33N 37°56' E 023°34'0 0.0
2016-Aug-18 12:33N 37°56' E 023°34'0 0.0
2016-Aug-18 11:33N 37°56' E 023°34'0 0.0
2016-Aug-18 10:33N 37°56' E 023°34'0 0.0
2016-Aug-18 09:33N 37°56' E 023°34'0 0.0
2016-Aug-18 08:33N 37°56' E 023°34'0 0.1
2016-Aug-18 07:33N 37°56' E 023°34'0 0.0
2016-Aug-18 06:33N 37°56' E 023°34'0 0.0
2016-Aug-18 05:33N 37°56' E 023°34'0 0.0
2016-Aug-18 04:33N 37°56' E 023°34'0 0.0
2016-Aug-18 03:33N 37°56' E 023°34'0 0.0
2016-Aug-18 02:33N 37°56' E 023°34'0 0.0
2016-Aug-18 01:33N 37°56' E 023°34'0 0.0
2016-Aug-18 00:33N 37°56' E 023°34'0 0.0
2016-Aug-17 23:33N 37°56' E 023°34'0 0.1
2016-Aug-17 22:33N 37°56' E 023°34'0 0.1
2016-Aug-17 21:33N 37°56' E 023°34'0 0.0
2016-Aug-17 20:33N 37°56' E 023°34'0 0.0
2016-Aug-17 19:33N 37°56' E 023°34'0 0.0
2016-Aug-17 18:33N 37°56' E 023°34'0 0.0
2016-Aug-17 17:33N 37°56' E 023°34'0 0.0
2016-Aug-17 16:33N 37°56' E 023°34'0 0.0
2016-Aug-17 15:33N 37°56' E 023°34'0 0.0
2016-Aug-17 14:33N 37°56' E 023°34'0 0.0
2016-Aug-17 13:33N 37°56' E 023°34'3 2.8
2016-Aug-17 12:33N 37°53' E 023°34'0 0.0
2016-Aug-17 11:33N 37°53' E 023°34'0 0.0
2016-Aug-17 10:33N 37°53' E 023°34'4 3.7
2016-Aug-17 09:33N 37°57' E 023°35'1 1.3
2016-Aug-17 08:33N 37°57' E 023°36'0 0.0
2016-Aug-17 07:33N 37°57' E 023°36'1 0.7
2016-Aug-17 06:33N 37°57' E 023°35'2 1.6
2016-Aug-17 05:33N 37°56' E 023°34'0 0.0
2016-Aug-17 04:33N 37°56' E 023°34'0 0.0
2016-Aug-17 03:33N 37°56' E 023°34'0 0.0
2016-Aug-17 02:33N 37°56' E 023°34'0 0.1
2016-Aug-17 01:33N 37°56' E 023°34'0 0.1
2016-Aug-17 00:33N 37°56' E 023°34'0 0.0
2016-Aug-16 23:33N 37°56' E 023°34'2 1.8
2016-Aug-16 22:33N 37°57' E 023°35'0 0.0
2016-Aug-16 21:33N 37°57' E 023°35'0 0.0
2016-Aug-16 20:33N 37°57' E 023°35'0 0.0
2016-Aug-16 19:33N 37°57' E 023°35'4 3.7
2016-Aug-16 18:33N 37°54' E 023°33'4 4.5
2016-Aug-16 17:33N 37°50' E 023°31'0 0.0
2016-Aug-16 16:33N 37°50' E 023°31'0 0.2
2016-Aug-16 15:33N 37°50' E 023°31'0 0.1
2016-Aug-16 14:33N 37°50' E 023°31'0 0.2
2016-Aug-16 13:33N 37°50' E 023°31'0 0.1
2016-Aug-16 12:33N 37°50' E 023°31'0 0.0
2016-Aug-16 11:33N 37°50' E 023°31'6 6.1
2016-Aug-16 10:33N 37°56' E 023°34'0 0.0
2016-Aug-16 09:33N 37°56' E 023°34'0 0.0
2016-Aug-16 08:33N 37°56' E 023°34'0 0.0
2016-Aug-16 07:33N 37°56' E 023°34'0 0.0
2016-Aug-16 04:33N 37°56' E 023°34'0 0.0
2016-Aug-16 03:33N 37°56' E 023°34'0 0.0
2016-Aug-16 02:33N 37°56' E 023°34'0 0.0
2016-Aug-16 01:33N 37°56' E 023°34'0 0.0
2016-Aug-16 00:33N 37°56' E 023°34'0 0.0
2016-Aug-15 23:33N 37°56' E 023°34'0 0.0
2016-Aug-15 22:33N 37°56' E 023°34'0 0.0
2016-Aug-15 21:33N 37°56' E 023°34'0 0.0
2016-Aug-15 20:33N 37°56' E 023°34'0 0.0
2016-Aug-15 19:33N 37°56' E 023°34'0 0.0
2016-Aug-15 18:33N 37°56' E 023°34'0 0.0
2016-Aug-15 17:33N 37°56' E 023°34'0 0.0
2016-Aug-15 16:33N 37°56' E 023°34'0 0.0
2016-Aug-15 15:33N 37°56' E 023°34'0 0.0
2016-Aug-15 14:33N 37°56' E 023°34'0 0.0
2016-Aug-15 13:33N 37°56' E 023°34'0 0.0
2016-Aug-15 12:33N 37°56' E 023°34'0 0.0
2016-Aug-15 11:33N 37°56' E 023°34'0 0.0
2016-Aug-15 10:33N 37°56' E 023°34'0 0.0
2016-Aug-15 09:33N 37°56' E 023°34'0 0.0
2016-Aug-15 08:33N 37°56' E 023°34'0 0.0
2016-Aug-15 07:33N 37°56' E 023°34'0 0.0
2016-Aug-15 06:33N 37°56' E 023°34'0 0.0
2016-Aug-15 04:33N 37°56' E 023°34'0 0.0
2016-Aug-15 03:33N 37°56' E 023°34'0 0.0
2016-Aug-15 02:33N 37°56' E 023°34'0 0.0
2016-Aug-15 01:33N 37°56' E 023°34'0 0.0
2016-Aug-15 00:33N 37°56' E 023°34'5 4.9
2016-Aug-14 23:33N 37°51' E 023°31'0 0.0
2016-Aug-14 22:33N 37°51' E 023°31'0 0.0
2016-Aug-14 21:33N 37°51' E 023°31'0 0.0
2016-Aug-14 20:33N 37°51' E 023°31'0 0.0
2016-Aug-14 19:33N 37°51' E 023°31'0 0.0
2016-Aug-14 18:33N 37°51' E 023°31'0 0.0
2016-Aug-14 17:33N 37°51' E 023°31'0 0.0
2016-Aug-14 16:33N 37°51' E 023°31'0 0.3
2016-Aug-14 15:33N 37°51' E 023°31'5 5.3
2016-Aug-14 14:33N 37°56' E 023°34'0 0.0
2016-Aug-14 13:33N 37°56' E 023°34'0 0.0
2016-Aug-14 12:33N 37°56' E 023°34'0 0.0
2016-Aug-14 11:33N 37°56' E 023°34'4 3.9
2016-Aug-14 10:33N 37°52' E 023°32'0 0.4
2016-Aug-14 09:33N 37°52' E 023°31'0 0.0
2016-Aug-14 08:33N 37°52' E 023°31'0 0.1
2016-Aug-14 07:33N 37°52' E 023°31'7 6.8
2016-Aug-14 06:33N 37°58' E 023°33'4 1.9
2016-Aug-14 04:33N 38°02' E 023°35'0 0.0
2016-Aug-14 03:33N 38°02' E 023°35'0 0.0
2016-Aug-14 02:33N 38°02' E 023°35'0 0.0
2016-Aug-14 01:33N 38°02' E 023°35'0 0.0
2016-Aug-14 00:33N 38°02' E 023°35'0 0.0
2016-Aug-13 23:33N 38°02' E 023°35'1 0.5
2016-Aug-13 22:33N 38°02' E 023°36'0 0.1
2016-Aug-13 21:33N 38°02' E 023°36'  
Track history (hours):
 
Tides and Currents Weather Stations Pressure Air Temp Water Temp Dewpoint Dewpoint Depression Visibility Wind Speed Wind Dir Waves Ship Positions

Menalon

Last reported at 2016-Aug-23 20:33 UTC. Time now 2016-Aug-23 21:07 UTC.
Position N 37°56' E 023°34'.

Length 83 m; draft 3.5 m.

Type: Ship (hazmat cat C). MMSI: 239741000.

Date/timePositionNaut miles runAvg speedWind from/ knotsBaromVisibWave heightAir tempDewpointWater temp
2016-Aug-23 20:33N 37°56' E 023°34'0 0.0
2016-Aug-23 19:33N 37°56' E 023°34'0 0.0
2016-Aug-23 18:33N 37°56' E 023°34'8 8.0
2016-Aug-23 17:33N 37°49' E 023°40'1110.7
2016-Aug-23 16:33N 37°40' E 023°46'1111.0
2016-Aug-23 15:33N 37°29' E 023°45'13 0.3
2016-Aug-21 13:07N 37°16' E 023°41'5 9.6
2016-Aug-21 12:33N 37°21' E 023°42'1010.1
2016-Aug-21 11:33N 37°31' E 023°42'1010.3
2016-Aug-21 10:33N 37°41' E 023°41'10 9.9
2016-Aug-21 09:33N 37°50' E 023°34'1010.5
2016-Aug-21 08:33N 37°51' E 023°21'1010.4
2016-Aug-21 07:33N 37°54' E 023°08'2 2.3
2016-Aug-21 06:32N 37°55' E 023°05'0 0.0
2016-Aug-21 05:32N 37°55' E 023°05'0 0.0
2016-Aug-21 04:32N 37°55' E 023°05'0 0.0
2016-Aug-21 03:33N 37°55' E 023°05'0 0.0
2016-Aug-21 02:33N 37°55' E 023°05'0 0.0
2016-Aug-21 01:33N 37°55' E 023°05'0 0.0
2016-Aug-21 00:33N 37°55' E 023°05'0 0.0
2016-Aug-20 23:33N 37°55' E 023°05'0 0.0
2016-Aug-20 22:33N 37°55' E 023°05'5 5.1
2016-Aug-20 21:33N 37°54' E 023°12'1010.5
2016-Aug-20 20:33N 37°52' E 023°24'9 8.5
2016-Aug-20 19:33N 37°56' E 023°34'0 0.0
2016-Aug-20 18:33N 37°56' E 023°34'0 0.0
2016-Aug-20 17:33N 37°56' E 023°34'0 0.0
2016-Aug-20 16:33N 37°56' E 023°34'0 0.0
2016-Aug-20 15:33N 37°56' E 023°34'0 0.0
2016-Aug-20 14:33N 37°56' E 023°34'0 0.0
2016-Aug-20 13:33N 37°56' E 023°34'0 0.0
2016-Aug-20 12:33N 37°56' E 023°34'0 0.0
2016-Aug-20 11:33N 37°56' E 023°34'0 0.0
2016-Aug-20 10:33N 37°56' E 023°34'0 0.0
2016-Aug-20 09:33N 37°56' E 023°34'0 0.0
2016-Aug-20 08:33N 37°56' E 023°34'0 0.0
2016-Aug-20 07:33N 37°56' E 023°34'0 0.0
2016-Aug-20 06:33N 37°56' E 023°34'0 0.0
2016-Aug-20 05:33N 37°56' E 023°34'0 0.0
2016-Aug-20 04:33N 37°56' E 023°34'0 0.0
2016-Aug-20 03:33N 37°56' E 023°34'0 0.0
2016-Aug-20 02:33N 37°56' E 023°34'0 0.0
2016-Aug-20 01:33N 37°56' E 023°34'0 0.0
2016-Aug-20 00:33N 37°56' E 023°34'0 0.0
2016-Aug-19 23:33N 37°56' E 023°34'0 0.0
2016-Aug-19 22:33N 37°56' E 023°34'0 0.1
2016-Aug-19 21:33N 37°56' E 023°34'0 0.1
2016-Aug-19 20:33N 37°56' E 023°34'0 0.0
2016-Aug-19 19:33N 37°56' E 023°34'0 0.0
2016-Aug-19 18:33N 37°56' E 023°34'0 0.0
2016-Aug-19 17:33N 37°56' E 023°34'0 0.0
2016-Aug-19 16:33N 37°56' E 023°34'0 0.0
2016-Aug-19 15:33N 37°56' E 023°34'0 0.0
2016-Aug-19 14:33N 37°56' E 023°34'0 0.0
2016-Aug-19 13:33N 37°56' E 023°34'0 0.0
2016-Aug-19 12:33N 37°56' E 023°34'0 0.0
2016-Aug-19 11:33N 37°56' E 023°34'0 0.0
2016-Aug-19 10:33N 37°56' E 023°34'0 0.1
2016-Aug-19 09:33N 37°56' E 023°34'0 0.0
2016-Aug-19 08:33N 37°56' E 023°34'0 0.0
2016-Aug-19 07:33N 37°56' E 023°34'0 0.0
2016-Aug-19 06:33N 37°56' E 023°34'0 0.0
2016-Aug-19 05:33N 37°56' E 023°34'0 0.0
2016-Aug-19 04:33N 37°56' E 023°34'0 0.0
2016-Aug-19 03:33N 37°56' E 023°34'0 0.0
2016-Aug-19 02:33N 37°56' E 023°34'0 0.0
2016-Aug-19 01:33N 37°56' E 023°34'1 0.7
2016-Aug-19 00:33N 37°55' E 023°34'1 1.1
2016-Aug-18 23:33N 37°54' E 023°34'0 0.0
2016-Aug-18 22:33N 37°54' E 023°34'2 1.7
2016-Aug-18 21:33N 37°56' E 023°34'0 0.0
2016-Aug-18 20:33N 37°56' E 023°34'0 0.0
2016-Aug-18 19:33N 37°56' E 023°34'0 0.0
2016-Aug-18 18:33N 37°56' E 023°34'0 0.0
2016-Aug-18 17:33N 37°56' E 023°34'0 0.0
2016-Aug-18 16:33N 37°56' E 023°34'0 0.0
2016-Aug-18 15:33N 37°56' E 023°34'0 0.0
2016-Aug-18 14:33N 37°56' E 023°34'0 0.0
2016-Aug-18 13:33N 37°56' E 023°34'0 0.0
2016-Aug-18 12:33N 37°56' E 023°34'0 0.0
2016-Aug-18 11:33N 37°56' E 023°34'0 0.0
2016-Aug-18 10:33N 37°56' E 023°34'0 0.0
2016-Aug-18 09:33N 37°56' E 023°34'0 0.0
2016-Aug-18 08:33N 37°56' E 023°34'0 0.1
2016-Aug-18 07:33N 37°56' E 023°34'0 0.0
2016-Aug-18 06:33N 37°56' E 023°34'0 0.0
2016-Aug-18 05:33N 37°56' E 023°34'0 0.0
2016-Aug-18 04:33N 37°56' E 023°34'0 0.0
2016-Aug-18 03:33N 37°56' E 023°34'0 0.0
2016-Aug-18 02:33N 37°56' E 023°34'0 0.0
2016-Aug-18 01:33N 37°56' E 023°34'0 0.0
2016-Aug-18 00:33N 37°56' E 023°34'0 0.0
2016-Aug-17 23:33N 37°56' E 023°34'0 0.1
2016-Aug-17 22:33N 37°56' E 023°34'0 0.1
2016-Aug-17 21:33N 37°56' E 023°34'0 0.0
2016-Aug-17 20:33N 37°56' E 023°34'0 0.0
2016-Aug-17 19:33N 37°56' E 023°34'0 0.0
2016-Aug-17 18:33N 37°56' E 023°34'0 0.0
2016-Aug-17 17:33N 37°56' E 023°34'0 0.0
2016-Aug-17 16:33N 37°56' E 023°34'0 0.0
2016-Aug-17 15:33N 37°56' E 023°34'0 0.0
2016-Aug-17 14:33N 37°56' E 023°34'0 0.0
2016-Aug-17 13:33N 37°56' E 023°34'3 2.8
2016-Aug-17 12:33N 37°53' E 023°34'0 0.0
2016-Aug-17 11:33N 37°53' E 023°34'0 0.0
2016-Aug-17 10:33N 37°53' E 023°34'4 3.7
2016-Aug-17 09:33N 37°57' E 023°35'1 1.3
2016-Aug-17 08:33N 37°57' E 023°36'0 0.0
2016-Aug-17 07:33N 37°57' E 023°36'1 0.7
2016-Aug-17 06:33N 37°57' E 023°35'2 1.6
2016-Aug-17 05:33N 37°56' E 023°34'0 0.0
2016-Aug-17 04:33N 37°56' E 023°34'0 0.0
2016-Aug-17 03:33N 37°56' E 023°34'0 0.0
2016-Aug-17 02:33N 37°56' E 023°34'0 0.1
2016-Aug-17 01:33N 37°56' E 023°34'0 0.1
2016-Aug-17 00:33N 37°56' E 023°34'0 0.0
2016-Aug-16 23:33N 37°56' E 023°34'2 1.8
2016-Aug-16 22:33N 37°57' E 023°35'0 0.0
2016-Aug-16 21:33N 37°57' E 023°35'0 0.0
2016-Aug-16 20:33N 37°57' E 023°35'0 0.0
2016-Aug-16 19:33N 37°57' E 023°35'4 3.7
2016-Aug-16 18:33N 37°54' E 023°33'4 4.5
2016-Aug-16 17:33N 37°50' E 023°31'0 0.0
2016-Aug-16 16:33N 37°50' E 023°31'0 0.2
2016-Aug-16 15:33N 37°50' E 023°31'0 0.1
2016-Aug-16 14:33N 37°50' E 023°31'0 0.2
2016-Aug-16 13:33N 37°50' E 023°31'0 0.1
2016-Aug-16 12:33N 37°50' E 023°31'0 0.0
2016-Aug-16 11:33N 37°50' E 023°31'6 6.1
2016-Aug-16 10:33N 37°56' E 023°34'0 0.0
2016-Aug-16 09:33N 37°56' E 023°34'0 0.0
2016-Aug-16 08:33N 37°56' E 023°34'0 0.0
2016-Aug-16 07:33N 37°56' E 023°34'0 0.0
2016-Aug-16 04:33N 37°56' E 023°34'0 0.0
2016-Aug-16 03:33N 37°56' E 023°34'0 0.0
2016-Aug-16 02:33N 37°56' E 023°34'0 0.0
2016-Aug-16 01:33N 37°56' E 023°34'0 0.0
2016-Aug-16 00:33N 37°56' E 023°34'0 0.0
2016-Aug-15 23:33N 37°56' E 023°34'0 0.0
2016-Aug-15 22:33N 37°56' E 023°34'0 0.0
2016-Aug-15 21:33N 37°56' E 023°34'0 0.0
2016-Aug-15 20:33N 37°56' E 023°34'0 0.0
2016-Aug-15 19:33N 37°56' E 023°34'0 0.0
2016-Aug-15 18:33N 37°56' E 023°34'0 0.0
2016-Aug-15 17:33N 37°56' E 023°34'0 0.0
2016-Aug-15 16:33N 37°56' E 023°34'0 0.0
2016-Aug-15 15:33N 37°56' E 023°34'0 0.0
2016-Aug-15 14:33N 37°56' E 023°34'0 0.0
2016-Aug-15 13:33N 37°56' E 023°34'0 0.0
2016-Aug-15 12:33N 37°56' E 023°34'0 0.0
2016-Aug-15 11:33N 37°56' E 023°34'0 0.0
2016-Aug-15 10:33N 37°56' E 023°34'0 0.0
2016-Aug-15 09:33N 37°56' E 023°34'0 0.0
2016-Aug-15 08:33N 37°56' E 023°34'0 0.0
2016-Aug-15 07:33N 37°56' E 023°34'0 0.0
2016-Aug-15 06:33N 37°56' E 023°34'0 0.0
2016-Aug-15 04:33N 37°56' E 023°34'0 0.0
2016-Aug-15 03:33N 37°56' E 023°34'0 0.0
2016-Aug-15 02:33N 37°56' E 023°34'0 0.0
2016-Aug-15 01:33N 37°56' E 023°34'0 0.0
2016-Aug-15 00:33N 37°56' E 023°34'5 4.9
2016-Aug-14 23:33N 37°51' E 023°31'0 0.0
2016-Aug-14 22:33N 37°51' E 023°31'0 0.0
2016-Aug-14 21:33N 37°51' E 023°31'0 0.0
2016-Aug-14 20:33N 37°51' E 023°31'0 0.0
2016-Aug-14 19:33N 37°51' E 023°31'0 0.0
2016-Aug-14 18:33N 37°51' E 023°31'0 0.0
2016-Aug-14 17:33N 37°51' E 023°31'0 0.0
2016-Aug-14 16:33N 37°51' E 023°31'0 0.3
2016-Aug-14 15:33N 37°51' E 023°31'5 5.3
2016-Aug-14 14:33N 37°56' E 023°34'0 0.0
2016-Aug-14 13:33N 37°56' E 023°34'0 0.0
2016-Aug-14 12:33N 37°56' E 023°34'0 0.0
2016-Aug-14 11:33N 37°56' E 023°34'4 3.9
2016-Aug-14 10:33N 37°52' E 023°32'0 0.4
2016-Aug-14 09:33N 37°52' E 023°31'0 0.0
2016-Aug-14 08:33N 37°52' E 023°31'0 0.1
2016-Aug-14 07:33N 37°52' E 023°31'7 6.8
2016-Aug-14 06:33N 37°58' E 023°33'4 1.9
2016-Aug-14 04:33N 38°02' E 023°35'0 0.0
2016-Aug-14 03:33N 38°02' E 023°35'0 0.0
2016-Aug-14 02:33N 38°02' E 023°35'0 0.0
2016-Aug-14 01:33N 38°02' E 023°35'0 0.0
2016-Aug-14 00:33N 38°02' E 023°35'0 0.0
2016-Aug-13 23:33N 38°02' E 023°35'1 0.5
2016-Aug-13 22:33N 38°02' E 023°36'0 0.1
2016-Aug-13 21:33N 38°02' E 023°36'  

Dump ship's entire track history